sensor_id;sensor_type;location;lat;lon;timestamp;P1;durP1;ratioP1;P2;durP2;ratioP2
74259;SDS011;62630;55.874;37.516;2023-07-09T00:02:01;23.30;;;11.13;;
74259;SDS011;62630;55.874;37.516;2023-07-09T00:04:27;22.70;;;11.55;;
74259;SDS011;62630;55.874;37.516;2023-07-09T00:06:54;32.75;;;12.52;;
74259;SDS011;62630;55.874;37.516;2023-07-09T00:09:22;23.30;;;11.52;;
74259;SDS011;62630;55.874;37.516;2023-07-09T00:11:50;23.42;;;12.48;;
74259;SDS011;62630;55.874;37.516;2023-07-09T00:14:16;27.33;;;12.43;;
74259;SDS011;62630;55.874;37.516;2023-07-09T00:16:43;18.58;;;11.13;;
74259;SDS011;62630;55.874;37.516;2023-07-09T00:19:16;18.25;;;10.52;;
74259;SDS011;62630;55.874;37.516;2023-07-09T00:21:44;18.73;;;10.63;;
74259;SDS011;62630;55.874;37.516;2023-07-09T00:24:11;20.55;;;11.15;;
74259;SDS011;62630;55.874;37.516;2023-07-09T00:26:40;18.13;;;9.18;;
74259;SDS011;62630;55.874;37.516;2023-07-09T00:29:09;17.23;;;9.23;;
74259;SDS011;62630;55.874;37.516;2023-07-09T00:31:36;16.80;;;8.75;;
74259;SDS011;62630;55.874;37.516;2023-07-09T00:34:10;21.75;;;8.82;;
74259;SDS011;62630;55.874;37.516;2023-07-09T00:36:42;24.63;;;10.23;;
74259;SDS011;62630;55.874;37.516;2023-07-09T00:39:19;23.23;;;9.38;;
74259;SDS011;62630;55.874;37.516;2023-07-09T00:41:47;15.23;;;8.38;;
74259;SDS011;62630;55.874;37.516;2023-07-09T00:49:13;12.90;;;7.15;;
74259;SDS011;62630;55.874;37.516;2023-07-09T00:51:43;12.80;;;6.80;;
74259;SDS011;62630;55.874;37.516;2023-07-09T00:54:21;19.02;;;7.88;;
74259;SDS011;62630;55.874;37.516;2023-07-09T00:57:05;20.63;;;8.18;;
74259;SDS011;62630;55.874;37.516;2023-07-09T00:59:43;14.73;;;7.68;;
74259;SDS011;62630;55.874;37.516;2023-07-09T01:02:15;13.05;;;8.00;;
74259;SDS011;62630;55.874;37.516;2023-07-09T01:04:40;12.60;;;7.00;;
74259;SDS011;62630;55.874;37.516;2023-07-09T01:07:07;15.65;;;6.57;;
74259;SDS011;62630;55.874;37.516;2023-07-09T01:09:33;8.00;;;6.05;;
74259;SDS011;62630;55.874;37.516;2023-07-09T01:12:06;12.63;;;6.78;;
74259;SDS011;62630;55.874;37.516;2023-07-09T01:14:34;10.35;;;6.13;;
74259;SDS011;62630;55.874;37.516;2023-07-09T01:17:05;9.57;;;6.03;;
74259;SDS011;62630;55.874;37.516;2023-07-09T01:19:39;10.25;;;6.43;;
74259;SDS011;62630;55.874;37.516;2023-07-09T01:22:16;12.32;;;6.80;;
74259;SDS011;62630;55.874;37.516;2023-07-09T01:27:26;11.93;;;5.72;;
74259;SDS011;62630;55.874;37.516;2023-07-09T01:30:00;11.00;;;6.10;;
74259;SDS011;62630;55.874;37.516;2023-07-09T01:32:31;14.13;;;6.95;;
74259;SDS011;62630;55.874;37.516;2023-07-09T01:37:29;16.92;;;6.30;;
74259;SDS011;62630;55.874;37.516;2023-07-09T01:39:57;12.27;;;6.95;;
74259;SDS011;62630;55.874;37.516;2023-07-09T01:42:23;16.67;;;6.65;;
74259;SDS011;62630;55.874;37.516;2023-07-09T01:44:52;18.92;;;6.70;;
74259;SDS011;62630;55.874;37.516;2023-07-09T01:47:18;15.77;;;6.35;;
74259;SDS011;62630;55.874;37.516;2023-07-09T01:49:45;11.88;;;6.25;;
74259;SDS011;62630;55.874;37.516;2023-07-09T01:52:11;16.08;;;7.13;;
74259;SDS011;62630;55.874;37.516;2023-07-09T01:54:39;17.25;;;6.60;;
74259;SDS011;62630;55.874;37.516;2023-07-09T01:59:53;26.23;;;7.25;;
74259;SDS011;62630;55.874;37.516;2023-07-09T02:02:20;22.85;;;7.72;;
74259;SDS011;62630;55.874;37.516;2023-07-09T02:04:47;23.67;;;7.60;;
74259;SDS011;62630;55.874;37.516;2023-07-09T02:09:40;15.68;;;6.30;;
74259;SDS011;62630;55.874;37.516;2023-07-09T02:12:06;15.88;;;6.40;;
74259;SDS011;62630;55.874;37.516;2023-07-09T02:14:32;18.20;;;6.18;;
74259;SDS011;62630;55.874;37.516;2023-07-09T02:16:57;13.00;;;6.45;;
74259;SDS011;62630;55.874;37.516;2023-07-09T02:19:23;15.73;;;7.05;;
74259;SDS011;62630;55.874;37.516;2023-07-09T02:21:48;16.73;;;6.00;;
74259;SDS011;62630;55.874;37.516;2023-07-09T02:24:15;11.82;;;6.30;;
74259;SDS011;62630;55.874;37.516;2023-07-09T02:26:41;18.75;;;6.47;;
74259;SDS011;62630;55.874;37.516;2023-07-09T02:29:06;10.98;;;5.63;;
74259;SDS011;62630;55.874;37.516;2023-07-09T02:31:32;14.32;;;6.88;;
74259;SDS011;62630;55.874;37.516;2023-07-09T02:33:59;11.15;;;5.28;;
74259;SDS011;62630;55.874;37.516;2023-07-09T02:36:24;13.10;;;5.47;;
74259;SDS011;62630;55.874;37.516;2023-07-09T02:38:50;13.77;;;6.65;;
74259;SDS011;62630;55.874;37.516;2023-07-09T02:41:16;13.13;;;5.38;;
74259;SDS011;62630;55.874;37.516;2023-07-09T02:43:41;12.95;;;4.85;;
74259;SDS011;62630;55.874;37.516;2023-07-09T02:46:07;9.35;;;5.22;;
74259;SDS011;62630;55.874;37.516;2023-07-09T02:48:32;10.65;;;5.00;;
74259;SDS011;62630;55.874;37.516;2023-07-09T02:50:58;11.13;;;4.80;;
74259;SDS011;62630;55.874;37.516;2023-07-09T02:53:24;8.43;;;4.65;;
74259;SDS011;62630;55.874;37.516;2023-07-09T02:55:49;12.68;;;5.15;;
74259;SDS011;62630;55.874;37.516;2023-07-09T02:58:15;8.48;;;4.55;;
74259;SDS011;62630;55.874;37.516;2023-07-09T03:00:41;9.07;;;4.63;;
74259;SDS011;62630;55.874;37.516;2023-07-09T03:03:06;10.25;;;4.95;;
74259;SDS011;62630;55.874;37.516;2023-07-09T03:05:33;12.95;;;5.10;;
74259;SDS011;62630;55.874;37.516;2023-07-09T03:07:59;11.20;;;4.93;;
74259;SDS011;62630;55.874;37.516;2023-07-09T03:10:25;11.27;;;5.13;;
74259;SDS011;62630;55.874;37.516;2023-07-09T03:12:50;13.32;;;5.78;;
74259;SDS011;62630;55.874;37.516;2023-07-09T03:15:15;13.70;;;5.40;;
74259;SDS011;62630;55.874;37.516;2023-07-09T03:17:41;12.30;;;5.55;;
74259;SDS011;62630;55.874;37.516;2023-07-09T03:20:07;11.40;;;5.35;;
74259;SDS011;62630;55.874;37.516;2023-07-09T03:22:41;13.05;;;5.80;;
74259;SDS011;62630;55.874;37.516;2023-07-09T03:25:07;14.48;;;4.95;;
74259;SDS011;62630;55.874;37.516;2023-07-09T03:27:32;14.02;;;5.20;;
74259;SDS011;62630;55.874;37.516;2023-07-09T03:29:58;11.25;;;5.05;;
74259;SDS011;62630;55.874;37.516;2023-07-09T03:32:34;17.73;;;5.95;;
74259;SDS011;62630;55.874;37.516;2023-07-09T03:35:00;15.48;;;5.30;;
74259;SDS011;62630;55.874;37.516;2023-07-09T03:37:25;12.57;;;5.20;;
74259;SDS011;62630;55.874;37.516;2023-07-09T03:39:53;13.90;;;5.80;;
74259;SDS011;62630;55.874;37.516;2023-07-09T03:42:19;10.95;;;5.65;;
74259;SDS011;62630;55.874;37.516;2023-07-09T03:44:44;13.50;;;5.30;;
74259;SDS011;62630;55.874;37.516;2023-07-09T03:47:12;9.10;;;4.97;;
74259;SDS011;62630;55.874;37.516;2023-07-09T03:49:38;15.65;;;5.10;;
74259;SDS011;62630;55.874;37.516;2023-07-09T03:52:06;15.15;;;5.55;;
74259;SDS011;62630;55.874;37.516;2023-07-09T03:54:35;16.10;;;4.93;;
74259;SDS011;62630;55.874;37.516;2023-07-09T03:57:01;10.75;;;4.35;;
74259;SDS011;62630;55.874;37.516;2023-07-09T03:59:27;11.07;;;4.78;;
74259;SDS011;62630;55.874;37.516;2023-07-09T04:01:52;8.10;;;4.50;;
74259;SDS011;62630;55.874;37.516;2023-07-09T04:04:18;12.98;;;4.70;;
74259;SDS011;62630;55.874;37.516;2023-07-09T04:09:11;14.15;;;4.70;;
74259;SDS011;62630;55.874;37.516;2023-07-09T04:11:36;12.13;;;4.50;;
74259;SDS011;62630;55.874;37.516;2023-07-09T04:14:02;8.90;;;4.97;;
74259;SDS011;62630;55.874;37.516;2023-07-09T04:16:27;13.55;;;5.00;;
74259;SDS011;62630;55.874;37.516;2023-07-09T04:18:53;10.68;;;4.88;;
74259;SDS011;62630;55.874;37.516;2023-07-09T04:21:19;14.48;;;4.53;;
74259;SDS011;62630;55.874;37.516;2023-07-09T04:23:44;14.23;;;5.90;;
74259;SDS011;62630;55.874;37.516;2023-07-09T04:26:13;12.02;;;5.03;;
74259;SDS011;62630;55.874;37.516;2023-07-09T04:28:39;8.13;;;4.50;;
74259;SDS011;62630;55.874;37.516;2023-07-09T04:31:04;7.60;;;2.80;;
74259;SDS011;62630;55.874;37.516;2023-07-09T04:33:30;16.25;;;3.63;;
74259;SDS011;62630;55.874;37.516;2023-07-09T04:35:56;10.52;;;3.83;;
74259;SDS011;62630;55.874;37.516;2023-07-09T04:38:22;7.70;;;3.95;;
74259;SDS011;62630;55.874;37.516;2023-07-09T04:40:48;10.38;;;4.07;;
74259;SDS011;62630;55.874;37.516;2023-07-09T04:43:14;6.22;;;3.72;;
74259;SDS011;62630;55.874;37.516;2023-07-09T04:45:39;7.68;;;4.00;;
74259;SDS011;62630;55.874;37.516;2023-07-09T04:48:05;16.13;;;4.03;;
74259;SDS011;62630;55.874;37.516;2023-07-09T04:50:31;9.88;;;3.53;;
74259;SDS011;62630;55.874;37.516;2023-07-09T04:52:58;8.15;;;3.10;;
74259;SDS011;62630;55.874;37.516;2023-07-09T04:55:24;7.95;;;3.05;;
74259;SDS011;62630;55.874;37.516;2023-07-09T05:00:17;4.57;;;2.80;;
74259;SDS011;62630;55.874;37.516;2023-07-09T05:02:43;8.48;;;2.40;;
74259;SDS011;62630;55.874;37.516;2023-07-09T05:05:09;5.57;;;2.72;;
74259;SDS011;62630;55.874;37.516;2023-07-09T05:10:01;7.97;;;2.35;;
74259;SDS011;62630;55.874;37.516;2023-07-09T05:12:27;4.07;;;2.35;;
74259;SDS011;62630;55.874;37.516;2023-07-09T05:14:54;8.18;;;2.35;;
74259;SDS011;62630;55.874;37.516;2023-07-09T05:17:21;5.45;;;2.40;;
74259;SDS011;62630;55.874;37.516;2023-07-09T05:19:48;5.15;;;2.60;;
74259;SDS011;62630;55.874;37.516;2023-07-09T05:22:14;3.25;;;2.10;;
74259;SDS011;62630;55.874;37.516;2023-07-09T05:24:40;11.85;;;2.60;;
74259;SDS011;62630;55.874;37.516;2023-07-09T05:27:06;6.90;;;2.63;;
74259;SDS011;62630;55.874;37.516;2023-07-09T05:29:32;8.85;;;2.47;;
74259;SDS011;62630;55.874;37.516;2023-07-09T05:31:57;6.00;;;2.42;;
74259;SDS011;62630;55.874;37.516;2023-07-09T05:34:23;3.70;;;2.47;;
74259;SDS011;62630;55.874;37.516;2023-07-09T05:36:48;9.65;;;2.88;;
74259;SDS011;62630;55.874;37.516;2023-07-09T05:39:14;8.27;;;2.70;;
74259;SDS011;62630;55.874;37.516;2023-07-09T05:41:39;6.97;;;2.60;;
74259;SDS011;62630;55.874;37.516;2023-07-09T05:44:05;5.03;;;2.40;;
74259;SDS011;62630;55.874;37.516;2023-07-09T05:46:33;3.67;;;2.00;;
74259;SDS011;62630;55.874;37.516;2023-07-09T05:49:01;2.83;;;2.30;;
74259;SDS011;62630;55.874;37.516;2023-07-09T05:51:27;5.35;;;2.53;;
74259;SDS011;62630;55.874;37.516;2023-07-09T05:53:53;3.22;;;2.10;;
74259;SDS011;62630;55.874;37.516;2023-07-09T05:56:18;7.45;;;1.90;;
74259;SDS011;62630;55.874;37.516;2023-07-09T05:58:44;7.30;;;2.42;;
74259;SDS011;62630;55.874;37.516;2023-07-09T06:01:13;6.45;;;2.42;;
74259;SDS011;62630;55.874;37.516;2023-07-09T06:03:38;5.10;;;1.90;;
74259;SDS011;62630;55.874;37.516;2023-07-09T06:06:04;6.47;;;2.03;;
74259;SDS011;62630;55.874;37.516;2023-07-09T06:08:31;6.65;;;2.15;;
74259;SDS011;62630;55.874;37.516;2023-07-09T06:10:58;5.70;;;2.20;;
74259;SDS011;62630;55.874;37.516;2023-07-09T06:13:26;6.32;;;2.30;;
74259;SDS011;62630;55.874;37.516;2023-07-09T06:15:53;2.75;;;1.50;;
74259;SDS011;62630;55.874;37.516;2023-07-09T06:20:49;2.67;;;1.80;;
74259;SDS011;62630;55.874;37.516;2023-07-09T06:23:17;4.82;;;1.90;;
74259;SDS011;62630;55.874;37.516;2023-07-09T06:25:43;3.58;;;1.77;;
74259;SDS011;62630;55.874;37.516;2023-07-09T06:28:12;4.93;;;2.22;;
74259;SDS011;62630;55.874;37.516;2023-07-09T06:30:39;5.05;;;1.88;;
74259;SDS011;62630;55.874;37.516;2023-07-09T06:33:05;3.55;;;1.70;;
74259;SDS011;62630;55.874;37.516;2023-07-09T06:35:30;2.05;;;1.75;;
74259;SDS011;62630;55.874;37.516;2023-07-09T06:37:56;4.18;;;1.98;;
74259;SDS011;62630;55.874;37.516;2023-07-09T06:40:22;5.80;;;2.03;;
74259;SDS011;62630;55.874;37.516;2023-07-09T06:42:48;3.83;;;1.52;;
74259;SDS011;62630;55.874;37.516;2023-07-09T06:45:13;4.32;;;1.95;;
74259;SDS011;62630;55.874;37.516;2023-07-09T06:47:39;4.25;;;1.38;;
74259;SDS011;62630;55.874;37.516;2023-07-09T06:50:04;3.30;;;1.60;;
74259;SDS011;62630;55.874;37.516;2023-07-09T06:52:31;4.72;;;1.85;;
74259;SDS011;62630;55.874;37.516;2023-07-09T06:54:56;4.43;;;1.73;;
74259;SDS011;62630;55.874;37.516;2023-07-09T06:57:22;3.35;;;1.80;;
74259;SDS011;62630;55.874;37.516;2023-07-09T06:59:47;3.10;;;1.70;;
74259;SDS011;62630;55.874;37.516;2023-07-09T07:02:13;4.88;;;1.60;;
74259;SDS011;62630;55.874;37.516;2023-07-09T07:04:38;4.45;;;1.83;;
74259;SDS011;62630;55.874;37.516;2023-07-09T07:07:04;2.45;;;1.60;;
74259;SDS011;62630;55.874;37.516;2023-07-09T07:09:30;9.35;;;3.17;;
74259;SDS011;62630;55.874;37.516;2023-07-09T07:11:56;3.92;;;1.88;;
74259;SDS011;62630;55.874;37.516;2023-07-09T07:14:21;4.10;;;2.00;;
74259;SDS011;62630;55.874;37.516;2023-07-09T07:16:47;2.20;;;1.80;;
74259;SDS011;62630;55.874;37.516;2023-07-09T07:19:12;3.47;;;1.98;;
74259;SDS011;62630;55.874;37.516;2023-07-09T07:21:38;3.13;;;1.92;;
74259;SDS011;62630;55.874;37.516;2023-07-09T07:24:04;2.22;;;1.92;;
74259;SDS011;62630;55.874;37.516;2023-07-09T07:26:29;2.75;;;2.05;;
74259;SDS011;62630;55.874;37.516;2023-07-09T07:28:55;2.47;;;1.90;;
74259;SDS011;62630;55.874;37.516;2023-07-09T07:31:20;3.95;;;2.05;;
74259;SDS011;62630;55.874;37.516;2023-07-09T07:33:46;3.78;;;1.88;;
74259;SDS011;62630;55.874;37.516;2023-07-09T07:36:12;5.63;;;1.80;;
74259;SDS011;62630;55.874;37.516;2023-07-09T07:38:37;3.55;;;1.83;;
74259;SDS011;62630;55.874;37.516;2023-07-09T07:41:03;2.80;;;2.10;;
74259;SDS011;62630;55.874;37.516;2023-07-09T07:43:28;4.68;;;2.00;;
74259;SDS011;62630;55.874;37.516;2023-07-09T07:45:54;2.85;;;1.80;;
74259;SDS011;62630;55.874;37.516;2023-07-09T07:48:20;3.70;;;2.00;;
74259;SDS011;62630;55.874;37.516;2023-07-09T07:50:45;3.75;;;1.90;;
74259;SDS011;62630;55.874;37.516;2023-07-09T07:53:13;2.80;;;2.00;;
74259;SDS011;62630;55.874;37.516;2023-07-09T07:55:40;4.32;;;1.88;;
74259;SDS011;62630;55.874;37.516;2023-07-09T07:58:07;1.90;;;1.67;;
74259;SDS011;62630;55.874;37.516;2023-07-09T08:00:36;3.25;;;1.80;;
74259;SDS011;62630;55.874;37.516;2023-07-09T08:03:03;3.30;;;1.88;;
74259;SDS011;62630;55.874;37.516;2023-07-09T08:05:29;5.03;;;2.40;;
74259;SDS011;62630;55.874;37.516;2023-07-09T08:07:55;7.70;;;2.03;;
74259;SDS011;62630;55.874;37.516;2023-07-09T08:10:20;2.75;;;1.90;;
74259;SDS011;62630;55.874;37.516;2023-07-09T08:12:46;4.78;;;2.20;;
74259;SDS011;62630;55.874;37.516;2023-07-09T08:15:11;4.03;;;2.03;;
74259;SDS011;62630;55.874;37.516;2023-07-09T08:17:37;3.90;;;2.10;;
74259;SDS011;62630;55.874;37.516;2023-07-09T08:20:03;4.28;;;1.80;;
74259;SDS011;62630;55.874;37.516;2023-07-09T08:22:29;2.58;;;1.48;;
74259;SDS011;62630;55.874;37.516;2023-07-09T08:24:55;1.90;;;1.40;;
74259;SDS011;62630;55.874;37.516;2023-07-09T08:27:20;2.03;;;1.80;;
74259;SDS011;62630;55.874;37.516;2023-07-09T08:29:46;3.42;;;1.85;;
74259;SDS011;62630;55.874;37.516;2023-07-09T08:32:20;2.13;;;1.70;;
74259;SDS011;62630;55.874;37.516;2023-07-09T08:34:46;2.95;;;1.85;;
74259;SDS011;62630;55.874;37.516;2023-07-09T08:37:11;2.75;;;1.95;;
74259;SDS011;62630;55.874;37.516;2023-07-09T08:39:37;2.58;;;1.77;;
74259;SDS011;62630;55.874;37.516;2023-07-09T08:42:13;7.07;;;1.92;;
74259;SDS011;62630;55.874;37.516;2023-07-09T08:47:52;6.72;;;2.30;;
74259;SDS011;62630;55.874;37.516;2023-07-09T08:53:02;6.63;;;1.88;;
74259;SDS011;62630;55.874;37.516;2023-07-09T08:55:31;3.92;;;1.95;;
74259;SDS011;62630;55.874;37.516;2023-07-09T08:58:09;4.05;;;1.55;;
74259;SDS011;62630;55.874;37.516;2023-07-09T09:05:48;3.78;;;2.08;;
74259;SDS011;62630;55.874;37.516;2023-07-09T09:13:42;4.18;;;1.95;;
74259;SDS011;62630;55.874;37.516;2023-07-09T09:16:12;3.15;;;1.95;;
74259;SDS011;62630;55.874;37.516;2023-07-09T09:18:57;3.10;;;1.73;;
74259;SDS011;62630;55.874;37.516;2023-07-09T09:27:03;5.20;;;2.47;;
74259;SDS011;62630;55.874;37.516;2023-07-09T09:29:28;4.10;;;1.83;;
74259;SDS011;62630;55.874;37.516;2023-07-09T09:31:57;6.35;;;1.98;;
74259;SDS011;62630;55.874;37.516;2023-07-09T09:34:27;3.30;;;2.08;;
74259;SDS011;62630;55.874;37.516;2023-07-09T09:36:55;3.92;;;2.13;;
74259;SDS011;62630;55.874;37.516;2023-07-09T09:39:23;4.00;;;2.05;;
74259;SDS011;62630;55.874;37.516;2023-07-09T09:41:52;4.22;;;2.00;;
74259;SDS011;62630;55.874;37.516;2023-07-09T09:44:21;2.78;;;1.85;;
74259;SDS011;62630;55.874;37.516;2023-07-09T09:46:51;2.85;;;1.88;;
74259;SDS011;62630;55.874;37.516;2023-07-09T09:49:16;4.93;;;2.00;;
74259;SDS011;62630;55.874;37.516;2023-07-09T09:51:43;6.65;;;2.33;;
74259;SDS011;62630;55.874;37.516;2023-07-09T09:54:20;5.25;;;2.40;;
74259;SDS011;62630;55.874;37.516;2023-07-09T09:59:23;3.42;;;1.90;;
74259;SDS011;62630;55.874;37.516;2023-07-09T10:01:58;5.07;;;1.80;;
74259;SDS011;62630;55.874;37.516;2023-07-09T10:04:25;3.25;;;1.77;;
74259;SDS011;62630;55.874;37.516;2023-07-09T10:07:00;3.45;;;1.80;;
74259;SDS011;62630;55.874;37.516;2023-07-09T10:17:54;2.83;;;1.73;;
74259;SDS011;62630;55.874;37.516;2023-07-09T10:20:36;2.88;;;1.80;;
74259;SDS011;62630;55.874;37.516;2023-07-09T10:23:22;6.03;;;1.70;;
74259;SDS011;62630;55.874;37.516;2023-07-09T10:25:57;4.22;;;2.15;;
74259;SDS011;62630;55.874;37.516;2023-07-09T10:28:45;3.10;;;1.80;;
74259;SDS011;62630;55.874;37.516;2023-07-09T10:31:17;5.97;;;1.60;;
74259;SDS011;62630;55.874;37.516;2023-07-09T10:36:42;2.80;;;1.77;;
74259;SDS011;62630;55.874;37.516;2023-07-09T10:39:32;3.00;;;2.05;;
74259;SDS011;62630;55.874;37.516;2023-07-09T10:42:02;6.80;;;1.80;;
74259;SDS011;62630;55.874;37.516;2023-07-09T10:44:31;3.90;;;1.92;;
74259;SDS011;62630;55.874;37.516;2023-07-09T10:47:02;4.63;;;1.60;;
74259;SDS011;62630;55.874;37.516;2023-07-09T10:49:36;4.45;;;1.98;;
74259;SDS011;62630;55.874;37.516;2023-07-09T10:52:21;4.78;;;2.22;;
74259;SDS011;62630;55.874;37.516;2023-07-09T10:55:03;5.35;;;1.88;;
74259;SDS011;62630;55.874;37.516;2023-07-09T10:57:54;5.78;;;2.00;;
74259;SDS011;62630;55.874;37.516;2023-07-09T11:00:36;2.58;;;1.60;;
74259;SDS011;62630;55.874;37.516;2023-07-09T11:03:18;2.50;;;1.80;;
74259;SDS011;62630;55.874;37.516;2023-07-09T11:05:46;6.13;;;1.80;;
74259;SDS011;62630;55.874;37.516;2023-07-09T11:08:16;7.95;;;1.75;;
74259;SDS011;62630;55.874;37.516;2023-07-09T11:10:52;3.45;;;1.45;;
74259;SDS011;62630;55.874;37.516;2023-07-09T11:16:04;3.28;;;1.73;;
74259;SDS011;62630;55.874;37.516;2023-07-09T11:18:32;4.53;;;1.75;;
74259;SDS011;62630;55.874;37.516;2023-07-09T11:21:06;2.67;;;1.50;;
74259;SDS011;62630;55.874;37.516;2023-07-09T11:23:43;7.43;;;1.90;;
74259;SDS011;62630;55.874;37.516;2023-07-09T11:28:50;5.03;;;1.42;;
74259;SDS011;62630;55.874;37.516;2023-07-09T11:31:22;2.00;;;1.55;;
74259;SDS011;62630;55.874;37.516;2023-07-09T11:33:59;1.77;;;1.40;;
74259;SDS011;62630;55.874;37.516;2023-07-09T11:36:27;4.95;;;1.98;;
74259;SDS011;62630;55.874;37.516;2023-07-09T11:38:55;6.32;;;1.70;;
74259;SDS011;62630;55.874;37.516;2023-07-09T11:44:03;8.65;;;1.98;;
74259;SDS011;62630;55.874;37.516;2023-07-09T11:46:40;5.82;;;1.80;;
74259;SDS011;62630;55.874;37.516;2023-07-09T11:49:15;3.55;;;1.70;;
74259;SDS011;62630;55.874;37.516;2023-07-09T11:51:44;5.07;;;1.90;;
74259;SDS011;62630;55.874;37.516;2023-07-09T11:54:14;3.20;;;1.67;;
74259;SDS011;62630;55.874;37.516;2023-07-09T11:56:40;3.65;;;1.70;;
74259;SDS011;62630;55.874;37.516;2023-07-09T11:59:07;3.65;;;1.80;;
74259;SDS011;62630;55.874;37.516;2023-07-09T12:01:43;1.92;;;1.73;;
74259;SDS011;62630;55.874;37.516;2023-07-09T12:04:13;4.22;;;1.80;;
74259;SDS011;62630;55.874;37.516;2023-07-09T12:06:41;4.45;;;1.92;;
74259;SDS011;62630;55.874;37.516;2023-07-09T12:09:09;1.60;;;1.30;;
74259;SDS011;62630;55.874;37.516;2023-07-09T12:11:46;2.58;;;1.30;;
74259;SDS011;62630;55.874;37.516;2023-07-09T12:14:14;5.05;;;1.83;;
74259;SDS011;62630;55.874;37.516;2023-07-09T12:16:42;3.80;;;1.65;;
74259;SDS011;62630;55.874;37.516;2023-07-09T12:19:13;1.83;;;1.60;;
74259;SDS011;62630;55.874;37.516;2023-07-09T12:21:40;4.03;;;1.90;;
74259;SDS011;62630;55.874;37.516;2023-07-09T12:29:19;4.43;;;1.88;;
74259;SDS011;62630;55.874;37.516;2023-07-09T12:31:45;3.15;;;1.98;;
74259;SDS011;62630;55.874;37.516;2023-07-09T12:34:14;3.42;;;1.98;;
74259;SDS011;62630;55.874;37.516;2023-07-09T12:36:41;4.20;;;2.20;;
74259;SDS011;62630;55.874;37.516;2023-07-09T12:39:10;4.88;;;1.92;;
74259;SDS011;62630;55.874;37.516;2023-07-09T12:41:38;5.38;;;1.92;;
74259;SDS011;62630;55.874;37.516;2023-07-09T12:44:11;3.97;;;2.45;;
74259;SDS011;62630;55.874;37.516;2023-07-09T12:46:44;6.40;;;1.90;;
74259;SDS011;62630;55.874;37.516;2023-07-09T12:49:20;2.30;;;1.80;;
74259;SDS011;62630;55.874;37.516;2023-07-09T12:51:56;2.90;;;2.00;;
74259;SDS011;62630;55.874;37.516;2023-07-09T12:54:22;3.03;;;2.00;;
74259;SDS011;62630;55.874;37.516;2023-07-09T12:56:52;3.47;;;1.85;;
74259;SDS011;62630;55.874;37.516;2023-07-09T12:59:21;1.73;;;1.63;;
74259;SDS011;62630;55.874;37.516;2023-07-09T13:04:27;2.25;;;1.95;;
74259;SDS011;62630;55.874;37.516;2023-07-09T13:06:57;6.15;;;2.00;;
74259;SDS011;62630;55.874;37.516;2023-07-09T13:09:28;4.35;;;2.30;;
74259;SDS011;62630;55.874;37.516;2023-07-09T13:11:54;6.85;;;2.00;;
74259;SDS011;62630;55.874;37.516;2023-07-09T13:14:25;4.95;;;2.10;;
74259;SDS011;62630;55.874;37.516;2023-07-09T13:16:52;5.03;;;2.35;;
74259;SDS011;62630;55.874;37.516;2023-07-09T13:19:26;6.90;;;2.20;;
74259;SDS011;62630;55.874;37.516;2023-07-09T13:21:55;4.13;;;2.30;;
74259;SDS011;62630;55.874;37.516;2023-07-09T13:24:22;4.93;;;2.10;;
74259;SDS011;62630;55.874;37.516;2023-07-09T13:26:50;5.82;;;2.00;;
74259;SDS011;62630;55.874;37.516;2023-07-09T13:29:18;5.32;;;2.10;;
74259;SDS011;62630;55.874;37.516;2023-07-09T13:31:45;4.65;;;2.08;;
74259;SDS011;62630;55.874;37.516;2023-07-09T13:36:58;6.28;;;2.17;;
74259;SDS011;62630;55.874;37.516;2023-07-09T13:39:24;4.07;;;2.60;;
74259;SDS011;62630;55.874;37.516;2023-07-09T13:41:50;6.40;;;2.28;;
74259;SDS011;62630;55.874;37.516;2023-07-09T13:44:21;7.32;;;1.88;;
74259;SDS011;62630;55.874;37.516;2023-07-09T13:46:50;2.40;;;2.00;;
74259;SDS011;62630;55.874;37.516;2023-07-09T13:51:44;7.93;;;2.33;;
74259;SDS011;62630;55.874;37.516;2023-07-09T13:54:16;4.35;;;1.98;;
74259;SDS011;62630;55.874;37.516;2023-07-09T13:56:45;4.78;;;2.42;;
74259;SDS011;62630;55.874;37.516;2023-07-09T13:59:12;8.48;;;1.92;;
74259;SDS011;62630;55.874;37.516;2023-07-09T14:01:46;2.83;;;1.92;;
74259;SDS011;62630;55.874;37.516;2023-07-09T14:04:13;4.55;;;1.85;;
74259;SDS011;62630;55.874;37.516;2023-07-09T14:06:41;5.50;;;2.00;;
74259;SDS011;62630;55.874;37.516;2023-07-09T14:09:08;4.97;;;1.70;;
74259;SDS011;62630;55.874;37.516;2023-07-09T14:11:35;6.95;;;1.70;;
74259;SDS011;62630;55.874;37.516;2023-07-09T14:16:44;3.38;;;2.00;;
74259;SDS011;62630;55.874;37.516;2023-07-09T14:19:14;3.45;;;1.60;;
74259;SDS011;62630;55.874;37.516;2023-07-09T14:21:42;4.38;;;2.03;;
74259;SDS011;62630;55.874;37.516;2023-07-09T14:24:18;2.40;;;1.58;;
74259;SDS011;62630;55.874;37.516;2023-07-09T14:26:51;3.92;;;1.35;;
74259;SDS011;62630;55.874;37.516;2023-07-09T14:29:26;4.65;;;2.10;;
74259;SDS011;62630;55.874;37.516;2023-07-09T14:31:52;5.25;;;2.25;;
74259;SDS011;62630;55.874;37.516;2023-07-09T14:34:19;2.15;;;1.77;;
74259;SDS011;62630;55.874;37.516;2023-07-09T14:36:46;3.22;;;1.63;;
74259;SDS011;62630;55.874;37.516;2023-07-09T14:39:12;2.85;;;1.70;;
74259;SDS011;62630;55.874;37.516;2023-07-09T14:41:37;4.07;;;1.92;;
74259;SDS011;62630;55.874;37.516;2023-07-09T14:46:55;2.97;;;1.63;;
74259;SDS011;62630;55.874;37.516;2023-07-09T14:49:24;3.38;;;1.65;;
74259;SDS011;62630;55.874;37.516;2023-07-09T14:51:51;6.13;;;1.75;;
74259;SDS011;62630;55.874;37.516;2023-07-09T14:56:44;3.28;;;1.90;;
74259;SDS011;62630;55.874;37.516;2023-07-09T14:59:10;4.40;;;1.65;;
74259;SDS011;62630;55.874;37.516;2023-07-09T15:01:35;3.05;;;1.60;;
74259;SDS011;62630;55.874;37.516;2023-07-09T15:04:07;2.65;;;2.30;;
74259;SDS011;62630;55.874;37.516;2023-07-09T15:06:50;5.50;;;1.80;;
74259;SDS011;62630;55.874;37.516;2023-07-09T15:09:19;4.57;;;1.50;;
74259;SDS011;62630;55.874;37.516;2023-07-09T15:11:46;3.15;;;2.10;;
74259;SDS011;62630;55.874;37.516;2023-07-09T15:14:15;3.53;;;1.80;;
74259;SDS011;62630;55.874;37.516;2023-07-09T15:16:40;6.55;;;2.00;;
74259;SDS011;62630;55.874;37.516;2023-07-09T15:19:16;4.30;;;1.70;;
74259;SDS011;62630;55.874;37.516;2023-07-09T15:21:43;8.60;;;2.10;;
74259;SDS011;62630;55.874;37.516;2023-07-09T15:24:29;4.25;;;1.98;;
74259;SDS011;62630;55.874;37.516;2023-07-09T15:26:57;5.10;;;1.88;;
74259;SDS011;62630;55.874;37.516;2023-07-09T15:29:25;8.77;;;1.85;;
74259;SDS011;62630;55.874;37.516;2023-07-09T15:31:52;8.65;;;1.75;;
74259;SDS011;62630;55.874;37.516;2023-07-09T15:34:18;5.15;;;1.70;;
74259;SDS011;62630;55.874;37.516;2023-07-09T15:36:47;5.90;;;1.73;;
74259;SDS011;62630;55.874;37.516;2023-07-09T15:39:15;2.20;;;1.55;;
74259;SDS011;62630;55.874;37.516;2023-07-09T15:41:42;5.68;;;1.98;;
74259;SDS011;62630;55.874;37.516;2023-07-09T15:44:11;4.13;;;1.90;;
74259;SDS011;62630;55.874;37.516;2023-07-09T15:46:42;2.15;;;1.67;;
74259;SDS011;62630;55.874;37.516;2023-07-09T15:49:15;4.88;;;2.20;;
74259;SDS011;62630;55.874;37.516;2023-07-09T15:51:40;2.80;;;1.40;;
74259;SDS011;62630;55.874;37.516;2023-07-09T15:54:16;5.68;;;1.50;;
74259;SDS011;62630;55.874;37.516;2023-07-09T15:56:43;2.80;;;1.80;;
74259;SDS011;62630;55.874;37.516;2023-07-09T16:01:45;6.80;;;1.75;;
74259;SDS011;62630;55.874;37.516;2023-07-09T16:04:10;7.72;;;1.80;;
74259;SDS011;62630;55.874;37.516;2023-07-09T16:06:37;7.93;;;2.08;;
74259;SDS011;62630;55.874;37.516;2023-07-09T16:09:03;3.47;;;1.88;;
74259;SDS011;62630;55.874;37.516;2023-07-09T16:13:55;8.00;;;2.38;;